sensor_id;sensor_type;location;lat;lon;timestamp;pressure;altitude;pressure_sealevel;temperature;humidity
9421;BME280;4749;51.398;5.466;2022-12-29T00:01:42;99952.50;;;11.26;100.00
9421;BME280;4749;51.398;5.466;2022-12-29T00:04:13;99960.41;;;11.28;100.00
9421;BME280;4749;51.398;5.466;2022-12-29T00:06:42;99964.78;;;11.26;100.00
9421;BME280;4749;51.398;5.466;2022-12-29T00:09:14;99963.06;;;11.25;100.00
9421;BME280;4749;51.398;5.466;2022-12-29T00:11:42;99952.59;;;11.22;100.00
9421;BME280;4749;51.398;5.466;2022-12-29T00:14:11;99942.06;;;11.22;100.00
9421;BME280;4749;51.398;5.466;2022-12-29T00:16:57;99931.53;;;11.22;100.00
9421;BME280;4749;51.398;5.466;2022-12-29T00:19:25;99942.00;;;11.25;100.00
9421;BME280;4749;51.398;5.466;2022-12-29T00:22:13;99931.50;;;11.23;100.00
9421;BME280;4749;51.398;5.466;2022-12-29T00:25:00;99937.66;;;11.24;100.00
9421;BME280;4749;51.398;5.466;2022-12-29T00:27:29;99924.47;;;11.25;100.00
9421;BME280;4749;51.398;5.466;2022-12-29T00:30:21;99906.03;;;11.25;100.00
9421;BME280;4749;51.398;5.466;2022-12-29T00:33:20;99906.91;;;11.26;100.00
9421;BME280;4749;51.398;5.466;2022-12-29T00:36:31;99909.53;;;11.26;100.00
9421;BME280;4749;51.398;5.466;2022-12-29T00:39:03;99909.53;;;11.26;100.00
9421;BME280;4749;51.398;5.466;2022-12-29T00:41:50;99913.06;;;11.25;100.00
9421;BME280;4749;51.398;5.466;2022-12-29T00:44:36;99898.16;;;11.25;100.00
9421;BME280;4749;51.398;5.466;2022-12-29T00:47:03;99899.88;;;11.26;100.00
9421;BME280;4749;51.398;5.466;2022-12-29T00:49:31;99894.63;;;11.26;100.00
9421;BME280;4749;51.398;5.466;2022-12-29T00:52:06;99897.25;;;11.26;100.00
9421;BME280;4749;51.398;5.466;2022-12-29T00:54:36;99886.75;;;11.25;100.00
9421;BME280;4749;51.398;5.466;2022-12-29T00:57:06;99885.88;;;11.26;100.00
9421;BME280;4749;51.398;5.466;2022-12-29T00:59:39;99877.94;;;11.29;100.00
9421;BME280;4749;51.398;5.466;2022-12-29T01:02:08;99881.47;;;11.28;100.00
9421;BME280;4749;51.398;5.466;2022-12-29T01:04:36;99885.00;;;11.27;100.00
9421;BME280;4749;51.398;5.466;2022-12-29T01:07:04;99873.56;;;11.28;100.00
9421;BME280;4749;51.398;5.466;2022-12-29T01:09:32;99862.19;;;11.26;100.00
9421;BME280;4749;51.398;5.466;2022-12-29T01:12:18;99857.84;;;11.23;100.00
9421;BME280;4749;51.398;5.466;2022-12-29T01:15:07;99867.56;;;11.20;100.00
9421;BME280;4749;51.398;5.466;2022-12-29T01:17:37;99873.72;;;11.19;100.00
9421;BME280;4749;51.398;5.466;2022-12-29T01:20:05;99874.59;;;11.19;100.00
9421;BME280;4749;51.398;5.466;2022-12-29T01:22:32;99868.44;;;11.20;100.00
9421;BME280;4749;51.398;5.466;2022-12-29T01:25:00;99873.69;;;11.20;100.00
9421;BME280;4749;51.398;5.466;2022-12-29T01:27:28;99878.06;;;11.21;100.00
9421;BME280;4749;51.398;5.466;2022-12-29T01:29:55;99859.66;;;11.21;100.00
9421;BME280;4749;51.398;5.466;2022-12-29T01:32:22;99857.88;;;11.22;100.00
9421;BME280;4749;51.398;5.466;2022-12-29T01:34:50;99856.13;;;11.22;100.00
9421;BME280;4749;51.398;5.466;2022-12-29T01:37:17;99864.00;;;11.22;100.00
9421;BME280;4749;51.398;5.466;2022-12-29T01:39:44;99865.75;;;11.23;100.00
9421;BME280;4749;51.398;5.466;2022-12-29T01:42:22;99842.91;;;11.25;100.00
9421;BME280;4749;51.398;5.466;2022-12-29T01:44:56;99849.91;;;11.28;100.00
9421;BME280;4749;51.398;5.466;2022-12-29T01:50:15;99861.28;;;11.28;100.00
9421;BME280;4749;51.398;5.466;2022-12-29T01:53:02;99842.91;;;11.27;100.00
9421;BME280;4749;51.398;5.466;2022-12-29T01:55:42;99848.97;;;11.31;100.00
9421;BME280;4749;51.398;5.466;2022-12-29T01:58:13;99836.66;;;11.33;100.00
9421;BME280;4749;51.398;5.466;2022-12-29T02:00:41;99847.16;;;11.34;100.00
9421;BME280;4749;51.398;5.466;2022-12-29T02:03:08;99861.16;;;11.35;100.00
9421;BME280;4749;51.398;5.466;2022-12-29T02:06:08;99869.03;;;11.38;100.00
9421;BME280;4749;51.398;5.466;2022-12-29T02:08:38;99860.22;;;11.40;100.00
9421;BME280;4749;51.398;5.466;2022-12-29T02:11:07;99861.06;;;11.42;100.00
9421;BME280;4749;51.398;5.466;2022-12-29T02:13:34;99868.03;;;11.45;100.00
9421;BME280;4749;51.398;5.466;2022-12-29T02:31:31;99853.97;;;11.47;100.00
9421;BME280;4749;51.398;5.466;2022-12-29T02:40:30;99846.09;;;11.46;100.00
9421;BME280;4749;51.398;5.466;2022-12-29T02:46:27;99824.22;;;11.42;100.00
9421;BME280;4749;51.398;5.466;2022-12-29T02:51:58;99824.22;;;11.44;100.00
9421;BME280;4749;51.398;5.466;2022-12-29T02:54:28;99822.44;;;11.43;100.00
9421;BME280;4749;51.398;5.466;2022-12-29T02:57:30;99825.94;;;11.45;100.00
9421;BME280;4749;51.398;5.466;2022-12-29T03:00:09;99811.94;;;11.41;100.00
9421;BME280;4749;51.398;5.466;2022-12-29T03:06:08;99806.69;;;11.41;100.00
9421;BME280;4749;51.398;5.466;2022-12-29T03:12:40;99813.75;;;11.39;100.00
9421;BME280;4749;51.398;5.466;2022-12-29T03:15:42;99813.75;;;11.39;100.00
9421;BME280;4749;51.398;5.466;2022-12-29T03:18:44;99810.28;;;11.37;100.00
9421;BME280;4749;51.398;5.466;2022-12-29T03:21:39;99810.31;;;11.34;100.00
9421;BME280;4749;51.398;5.466;2022-12-29T03:24:36;99796.34;;;11.31;100.00
9421;BME280;4749;51.398;5.466;2022-12-29T03:27:06;99812.19;;;11.27;100.00
9421;BME280;4749;51.398;5.466;2022-12-29T03:29:59;99803.44;;;11.25;100.00
9421;BME280;4749;51.398;5.466;2022-12-29T03:32:54;99794.72;;;11.23;100.00
9421;BME280;4749;51.398;5.466;2022-12-29T03:35:27;99813.22;;;11.19;100.00
9421;BME280;4749;51.398;5.466;2022-12-29T03:40:52;99804.53;;;11.12;100.00
9421;BME280;4749;51.398;5.466;2022-12-29T03:43:22;99813.34;;;11.10;100.00
9421;BME280;4749;51.398;5.466;2022-12-29T03:45:50;99802.91;;;11.05;100.00
9421;BME280;4749;51.398;5.466;2022-12-29T03:48:17;99802.97;;;11.02;100.00
9421;BME280;4749;51.398;5.466;2022-12-29T03:50:44;99797.78;;;10.96;100.00
9421;BME280;4749;51.398;5.466;2022-12-29T03:53:12;99796.94;;;10.92;100.00
9421;BME280;4749;51.398;5.466;2022-12-29T03:55:39;99810.19;;;10.88;100.00
9421;BME280;4749;51.398;5.466;2022-12-29T03:58:06;99820.72;;;10.86;100.00
9421;BME280;4749;51.398;5.466;2022-12-29T04:00:33;99814.59;;;10.86;100.00
9421;BME280;4749;51.398;5.466;2022-12-29T04:03:00;99825.13;;;10.84;100.00
9421;BME280;4749;51.398;5.466;2022-12-29T04:05:27;99837.41;;;10.85;100.00
9421;BME280;4749;51.398;5.466;2022-12-29T04:07:54;99843.53;;;10.86;100.00
9421;BME280;4749;51.398;5.466;2022-12-29T04:10:21;99832.16;;;10.82;100.00
9421;BME280;4749;51.398;5.466;2022-12-29T04:12:49;99819.06;;;10.79;100.00
9421;BME280;4749;51.398;5.466;2022-12-29T04:15:16;99830.50;;;10.75;100.00
9421;BME280;4749;51.398;5.466;2022-12-29T04:17:44;99828.00;;;10.69;100.00
9421;BME280;4749;51.398;5.466;2022-12-29T04:20:11;99849.09;;;10.63;100.00
9421;BME280;4749;51.398;5.466;2022-12-29T04:23:04;99855.34;;;10.54;100.00
9421;BME280;4749;51.398;5.466;2022-12-29T04:25:32;99849.31;;;10.46;100.00
9421;BME280;4749;51.398;5.466;2022-12-29T04:28:00;99853.78;;;10.39;100.00
9421;BME280;4749;51.398;5.466;2022-12-29T04:30:27;99851.22;;;10.35;100.00
9421;BME280;4749;51.398;5.466;2022-12-29T04:32:54;99849.53;;;10.29;100.00
9421;BME280;4749;51.398;5.466;2022-12-29T04:35:21;99839.06;;;10.23;100.00
9421;BME280;4749;51.398;5.466;2022-12-29T04:37:48;99846.06;;;10.21;100.00
9421;BME280;4749;51.398;5.466;2022-12-29T04:40:16;99850.47;;;10.21;100.00
9421;BME280;4749;51.398;5.466;2022-12-29T04:42:43;99859.22;;;10.21;100.00
9421;BME280;4749;51.398;5.466;2022-12-29T04:45:10;99856.59;;;10.21;100.00
9421;BME280;4749;51.398;5.466;2022-12-29T04:47:37;99863.59;;;10.22;100.00
9421;BME280;4749;51.398;5.466;2022-12-29T04:50:05;99870.63;;;10.19;100.00
9421;BME280;4749;51.398;5.466;2022-12-29T04:52:32;99871.50;;;10.19;100.00
9421;BME280;4749;51.398;5.466;2022-12-29T04:55:00;99868.00;;;10.19;100.00
9421;BME280;4749;51.398;5.466;2022-12-29T04:57:27;99889.03;;;10.15;100.00
9421;BME280;4749;51.398;5.466;2022-12-29T04:59:54;99889.06;;;10.14;100.00
9421;BME280;4749;51.398;5.466;2022-12-29T05:02:21;99887.34;;;10.08;100.00
9421;BME280;4749;51.398;5.466;2022-12-29T05:04:49;99897.88;;;10.07;100.00
9421;BME280;4749;51.398;5.466;2022-12-29T05:07:16;99903.16;;;10.05;100.00
9421;BME280;4749;51.398;5.466;2022-12-29T05:09:44;99902.31;;;10.03;100.00
9421;BME280;4749;51.398;5.466;2022-12-29T05:12:11;99898.84;;;10.01;100.00
9421;BME280;4749;51.398;5.466;2022-12-29T05:14:38;99909.31;;;10.00;100.00
9421;BME280;4749;51.398;5.466;2022-12-29T05:17:05;99909.31;;;10.00;100.00
9421;BME280;4749;51.398;5.466;2022-12-29T05:19:33;99911.06;;;9.99;100.00
9421;BME280;4749;51.398;5.466;2022-12-29T05:22:01;99908.41;;;10.04;100.00
9421;BME280;4749;51.398;5.466;2022-12-29T05:24:28;99896.97;;;10.08;100.00
9421;BME280;4749;51.398;5.466;2022-12-29T05:26:55;99912.72;;;10.12;100.00
9421;BME280;4749;51.398;5.466;2022-12-29T05:29:22;99901.28;;;10.16;100.00
9421;BME280;4749;51.398;5.466;2022-12-29T05:31:49;99911.75;;;10.23;100.00
9421;BME280;4749;51.398;5.466;2022-12-29T05:34:16;99908.22;;;10.27;100.00
9421;BME280;4749;51.398;5.466;2022-12-29T05:36:44;99906.44;;;10.29;100.00
9421;BME280;4749;51.398;5.466;2022-12-29T05:39:11;99905.56;;;10.28;100.00
9421;BME280;4749;51.398;5.466;2022-12-29T05:41:38;99917.81;;;10.29;100.00
9421;BME280;4749;51.398;5.466;2022-12-29T05:44:05;99928.31;;;10.31;100.00
9421;BME280;4749;51.398;5.466;2022-12-29T05:46:32;99934.44;;;10.31;100.00
9421;BME280;4749;51.398;5.466;2022-12-29T05:48:59;99935.28;;;10.33;100.00
9421;BME280;4749;51.398;5.466;2022-12-29T05:51:26;99937.91;;;10.33;100.00
9421;BME280;4749;51.398;5.466;2022-12-29T05:53:54;99938.78;;;10.35;100.00
9421;BME280;4749;51.398;5.466;2022-12-29T05:56:21;99945.75;;;10.38;100.00
9421;BME280;4749;51.398;5.466;2022-12-29T05:58:48;99949.22;;;10.40;100.00
9421;BME280;4749;51.398;5.466;2022-12-29T06:01:15;99951.84;;;10.43;100.00
9421;BME280;4749;51.398;5.466;2022-12-29T06:03:43;99944.81;;;10.45;100.00
9421;BME280;4749;51.398;5.466;2022-12-29T06:06:14;99956.13;;;10.49;100.00
9421;BME280;4749;51.398;5.466;2022-12-29T06:08:41;99935.97;;;10.52;100.00
9421;BME280;4749;51.398;5.466;2022-12-29T06:11:09;99935.91;;;10.55;100.00
9421;BME280;4749;51.398;5.466;2022-12-29T06:13:37;99933.25;;;10.58;100.00
9421;BME280;4749;51.398;5.466;2022-12-29T06:16:04;99940.25;;;10.61;100.00
9421;BME280;4749;51.398;5.466;2022-12-29T06:18:32;99934.94;;;10.64;100.00
9421;BME280;4749;51.398;5.466;2022-12-29T06:21:03;99954.19;;;10.66;100.00
9421;BME280;4749;51.398;5.466;2022-12-29T06:23:31;99932.25;;;10.67;100.00
9421;BME280;4749;51.398;5.466;2022-12-29T06:25:58;99934.00;;;10.69;100.00
9421;BME280;4749;51.398;5.466;2022-12-29T06:28:25;99935.72;;;10.72;100.00
9421;BME280;4749;51.398;5.466;2022-12-29T06:30:52;99939.22;;;10.73;100.00
9421;BME280;4749;51.398;5.466;2022-12-29T06:33:19;99935.66;;;10.75;100.00
9421;BME280;4749;51.398;5.466;2022-12-29T06:35:47;99949.69;;;10.77;100.00
9421;BME280;4749;51.398;5.466;2022-12-29T06:38:14;99934.78;;;10.78;100.00
9421;BME280;4749;51.398;5.466;2022-12-29T06:40:43;99933.88;;;10.80;100.00
9421;BME280;4749;51.398;5.466;2022-12-29T06:43:12;99938.28;;;10.78;100.00
9421;BME280;4749;51.398;5.466;2022-12-29T06:45:40;99932.16;;;10.78;100.00
9421;BME280;4749;51.398;5.466;2022-12-29T06:48:07;99934.75;;;10.79;100.00
9421;BME280;4749;51.398;5.466;2022-12-29T06:50:35;99934.72;;;10.81;100.00
9421;BME280;4749;51.398;5.466;2022-12-29T06:53:02;99934.72;;;10.81;100.00
9421;BME280;4749;51.398;5.466;2022-12-29T06:55:29;99935.56;;;10.83;100.00
9421;BME280;4749;51.398;5.466;2022-12-29T06:57:57;99943.47;;;10.83;100.00
9421;BME280;4749;51.398;5.466;2022-12-29T07:00:25;99941.75;;;10.80;100.00
9421;BME280;4749;51.398;5.466;2022-12-29T07:02:54;99936.53;;;10.76;100.00
9421;BME280;4749;51.398;5.466;2022-12-29T07:05:21;99936.59;;;10.71;100.00
9421;BME280;4749;51.398;5.466;2022-12-29T07:07:48;99957.69;;;10.68;100.00
9421;BME280;4749;51.398;5.466;2022-12-29T07:10:15;99957.72;;;10.63;100.00
9421;BME280;4749;51.398;5.466;2022-12-29T07:12:43;99949.88;;;10.62;100.00
9421;BME280;4749;51.398;5.466;2022-12-29T07:15:10;99950.72;;;10.64;100.00
9421;BME280;4749;51.398;5.466;2022-12-29T07:17:37;99968.25;;;10.63;100.00
9421;BME280;4749;51.398;5.466;2022-12-29T07:20:06;99975.28;;;10.61;100.00
9421;BME280;4749;51.398;5.466;2022-12-29T07:22:33;99975.31;;;10.60;100.00
9421;BME280;4749;51.398;5.466;2022-12-29T07:25:01;99962.16;;;10.58;100.00
9421;BME280;4749;51.398;5.466;2022-12-29T07:27:29;99975.31;;;10.57;100.00
9421;BME280;4749;51.398;5.466;2022-12-29T07:29:56;99971.78;;;10.58;100.00
9421;BME280;4749;51.398;5.466;2022-12-29T07:32:23;99983.16;;;10.61;100.00
9421;BME280;4749;51.398;5.466;2022-12-29T07:34:50;99976.09;;;10.65;100.00
9421;BME280;4749;51.398;5.466;2022-12-29T07:37:17;99975.19;;;10.67;100.00
9421;BME280;4749;51.398;5.466;2022-12-29T07:39:45;99975.19;;;10.69;100.00
9421;BME280;4749;51.398;5.466;2022-12-29T07:42:12;99996.13;;;10.75;100.00
9421;BME280;4749;51.398;5.466;2022-12-29T07:44:40;99982.94;;;10.80;100.00
9421;BME280;4749;51.398;5.466;2022-12-29T07:47:07;99984.66;;;10.82;100.00
9421;BME280;4749;51.398;5.466;2022-12-29T07:49:34;99975.00;;;10.83;100.00
9421;BME280;4749;51.398;5.466;2022-12-29T07:52:01;99978.53;;;10.85;100.00
9421;BME280;4749;51.398;5.466;2022-12-29T07:54:28;99985.50;;;10.87;100.00
9421;BME280;4749;51.398;5.466;2022-12-29T07:56:55;99985.44;;;10.90;100.00
9421;BME280;4749;51.398;5.466;2022-12-29T07:59:22;99983.69;;;10.91;100.00
9421;BME280;4749;51.398;5.466;2022-12-29T08:01:49;99977.53;;;10.92;100.00
9421;BME280;4749;51.398;5.466;2022-12-29T08:04:17;99991.53;;;10.95;100.00
9421;BME280;4749;51.398;5.466;2022-12-29T08:06:44;99990.59;;;10.98;100.00
9421;BME280;4749;51.398;5.466;2022-12-29T08:09:12;100000.22;;;10.99;100.00
9421;BME280;4749;51.398;5.466;2022-12-29T08:11:48;99993.16;;;11.04;100.00
9421;BME280;4749;51.398;5.466;2022-12-29T08:14:15;99990.53;;;11.04;100.00
9421;BME280;4749;51.398;5.466;2022-12-29T08:16:42;99997.53;;;11.05;100.00
9421;BME280;4749;51.398;5.466;2022-12-29T08:19:13;100002.75;;;11.08;100.00
9421;BME280;4749;51.398;5.466;2022-12-29T08:21:40;100002.72;;;11.11;100.00
9421;BME280;4749;51.398;5.466;2022-12-29T08:24:08;100009.72;;;11.12;100.00
9421;BME280;4749;51.398;5.466;2022-12-29T08:26:36;100021.03;;;11.17;100.00
9421;BME280;4749;51.398;5.466;2022-12-29T08:29:03;100029.81;;;11.19;100.00
9421;BME280;4749;51.398;5.466;2022-12-29T08:31:30;100017.44;;;11.24;100.00
9421;BME280;4749;51.398;5.466;2022-12-29T08:33:57;100026.16;;;11.30;100.00
9421;BME280;4749;51.398;5.466;2022-12-29T08:36:24;100023.47;;;11.33;100.00
9421;BME280;4749;51.398;5.466;2022-12-29T08:38:52;100007.63;;;11.39;100.00
9421;BME280;4749;51.398;5.466;2022-12-29T08:41:19;100024.31;;;11.36;100.00
9421;BME280;4749;51.398;5.466;2022-12-29T08:43:47;100024.28;;;11.39;100.00
9421;BME280;4749;51.398;5.466;2022-12-29T08:46:16;100041.78;;;11.40;100.00
9421;BME280;4749;51.398;5.466;2022-12-29T08:48:43;100015.44;;;11.42;100.00
9421;BME280;4749;51.398;5.466;2022-12-29T08:51:10;100024.16;;;11.47;100.00
9421;BME280;4749;51.398;5.466;2022-12-29T08:53:37;100019.75;;;11.49;100.00
9421;BME280;4749;51.398;5.466;2022-12-29T08:56:05;100029.34;;;11.51;100.00
9421;BME280;4749;51.398;5.466;2022-12-29T08:58:32;100026.66;;;11.56;100.00
9421;BME280;4749;51.398;5.466;2022-12-29T09:01:00;100021.38;;;11.57;100.00
9421;BME280;4749;51.398;5.466;2022-12-29T09:03:27;100013.44;;;11.59;100.00
9421;BME280;4749;51.398;5.466;2022-12-29T09:06:16;100014.34;;;11.58;100.00
9421;BME280;4749;51.398;5.466;2022-12-29T09:08:44;100037.13;;;11.59;100.00
9421;BME280;4749;51.398;5.466;2022-12-29T09:11:21;100022.91;;;11.72;100.00
9421;BME280;4749;51.398;5.466;2022-12-29T09:13:50;100033.22;;;11.89;100.00
9421;BME280;4749;51.398;5.466;2022-12-29T09:16:20;100025.25;;;11.95;100.00
9421;BME280;4749;51.398;5.466;2022-12-29T09:18:47;100028.78;;;11.91;100.00
9421;BME280;4749;51.398;5.466;2022-12-29T09:21:15;100046.31;;;11.94;100.00
9421;BME280;4749;51.398;5.466;2022-12-29T09:23:42;100048.06;;;11.93;100.00
9421;BME280;4749;51.398;5.466;2022-12-29T09:26:09;100048.06;;;11.93;100.00
9421;BME280;4749;51.398;5.466;2022-12-29T09:28:36;100052.50;;;11.91;100.00
9421;BME280;4749;51.398;5.466;2022-12-29T09:31:04;100049.88;;;11.91;100.00
9421;BME280;4749;51.398;5.466;2022-12-29T09:33:31;100055.19;;;11.88;100.00
9421;BME280;4749;51.398;5.466;2022-12-29T09:36:00;100069.28;;;11.86;100.00
9421;BME280;4749;51.398;5.466;2022-12-29T09:38:28;100048.22;;;11.86;100.00
9421;BME280;4749;51.398;5.466;2022-12-29T09:41:18;100060.53;;;11.82;100.00
9421;BME280;4749;51.398;5.466;2022-12-29T09:44:04;100065.00;;;11.75;100.00
9421;BME280;4749;51.398;5.466;2022-12-29T09:46:44;100078.34;;;11.63;100.00
9421;BME280;4749;51.398;5.466;2022-12-29T09:51:50;100090.88;;;11.46;100.00
9421;BME280;4749;51.398;5.466;2022-12-29T09:54:41;100092.63;;;11.42;100.00
9421;BME280;4749;51.398;5.466;2022-12-29T10:00:08;100118.16;;;11.37;100.00
9421;BME280;4749;51.398;5.466;2022-12-29T10:02:52;100111.94;;;11.43;100.00
9421;BME280;4749;51.398;5.466;2022-12-29T10:06:08;100115.47;;;11.42;100.00
9421;BME280;4749;51.398;5.466;2022-12-29T10:18:19;100134.88;;;11.32;100.00
9421;BME280;4749;51.398;5.466;2022-12-29T10:24:13;100128.09;;;11.12;100.00
9421;BME280;4749;51.398;5.466;2022-12-29T10:26:43;100142.25;;;11.02;100.00
9421;BME280;4749;51.398;5.466;2022-12-29T10:29:20;100133.50;;;10.98;100.00
9421;BME280;4749;51.398;5.466;2022-12-29T10:32:02;100132.56;;;11.01;100.00
9421;BME280;4749;51.398;5.466;2022-12-29T10:34:47;100154.44;;;11.08;100.00
9421;BME280;4749;51.398;5.466;2022-12-29T10:40:40;100176.19;;;11.25;100.00
9421;BME280;4749;51.398;5.466;2022-12-29T10:43:45;100188.38;;;11.35;100.00
9421;BME280;4749;51.398;5.466;2022-12-29T10:46:24;100189.28;;;11.30;100.00
9421;BME280;4749;51.398;5.466;2022-12-29T10:48:52;100198.19;;;11.19;100.00
9421;BME280;4749;51.398;5.466;2022-12-29T10:51:28;100184.16;;;11.17;100.00
9421;BME280;4749;51.398;5.466;2022-12-29T10:59:25;100199.91;;;11.22;100.00
9421;BME280;4749;51.398;5.466;2022-12-29T11:07:18;100216.69;;;11.90;100.00
9421;BME280;4749;51.398;5.466;2022-12-29T11:09:53;100207.88;;;11.94;100.00
9421;BME280;4749;51.398;5.466;2022-12-29T11:12:31;100222.81;;;11.92;100.00
9421;BME280;4749;51.398;5.466;2022-12-29T11:20:34;100241.13;;;12.01;100.00
9421;BME280;4749;51.398;5.466;2022-12-29T11:23:05;100231.38;;;12.11;100.00
9421;BME280;4749;51.398;5.466;2022-12-29T11:25:32;100236.38;;;12.31;100.00
9421;BME280;4749;51.398;5.466;2022-12-29T11:28:16;100241.50;;;12.40;100.00
9421;BME280;4749;51.398;5.466;2022-12-29T11:30:44;100238.72;;;12.49;100.00
9421;BME280;4749;51.398;5.466;2022-12-29T11:33:11;100243.94;;;12.52;100.00
9421;BME280;4749;51.398;5.466;2022-12-29T11:35:42;100245.75;;;12.50;100.00
9421;BME280;4749;51.398;5.466;2022-12-29T11:38:23;100244.88;;;12.50;100.00
9421;BME280;4749;51.398;5.466;2022-12-29T11:40:52;100252.00;;;12.45;100.00
9421;BME280;4749;51.398;5.466;2022-12-29T11:43:46;100250.22;;;12.45;100.00
9421;BME280;4749;51.398;5.466;2022-12-29T11:46:24;100256.41;;;12.41;100.00
9421;BME280;4749;51.398;5.466;2022-12-29T11:48:52;100254.66;;;12.42;100.00
9421;BME280;4749;51.398;5.466;2022-12-29T11:51:27;100257.19;;;12.49;100.00
9421;BME280;4749;51.398;5.466;2022-12-29T11:53:58;100258.97;;;12.47;100.00
9421;BME280;4749;51.398;5.466;2022-12-29T11:56:33;100256.28;;;12.50;100.00
9421;BME280;4749;51.398;5.466;2022-12-29T12:02:30;100263.31;;;12.50;100.00
9421;BME280;4749;51.398;5.466;2022-12-29T12:05:37;100277.34;;;12.53;100.00
9421;BME280;4749;51.398;5.466;2022-12-29T12:11:43;100255.34;;;12.56;100.00
9421;BME280;4749;51.398;5.466;2022-12-29T12:14:25;100251.84;;;12.55;100.00
9421;BME280;4749;51.398;5.466;2022-12-29T12:26:18;100271.53;;;12.27;100.00
9421;BME280;4749;51.398;5.466;2022-12-29T12:29:32;100269.66;;;12.35;100.00
9421;BME280;4749;51.398;5.466;2022-12-29T12:34:46;100275.72;;;12.45;100.00
9421;BME280;4749;51.398;5.466;2022-12-29T12:37:36;100280.88;;;12.51;100.00
9421;BME280;4749;51.398;5.466;2022-12-29T12:40:57;100281.75;;;12.53;100.00
9421;BME280;4749;51.398;5.466;2022-12-29T12:43:52;100284.28;;;12.59;100.00
9421;BME280;4749;51.398;5.466;2022-12-29T12:50:04;100298.47;;;12.50;100.00
9421;BME280;4749;51.398;5.466;2022-12-29T12:53:02;100297.69;;;12.42;100.00
9421;BME280;4749;51.398;5.466;2022-12-29T12:58:52;100302.16;;;12.38;100.00
9421;BME280;4749;51.398;5.466;2022-12-29T13:07:50;100290.84;;;12.30;100.00
9421;BME280;4749;51.398;5.466;2022-12-29T13:16:39;100285.75;;;12.15;100.00
9421;BME280;4749;51.398;5.466;2022-12-29T13:22:17;100289.50;;;11.97;100.00
9421;BME280;4749;51.398;5.466;2022-12-29T13:33:39;100305.94;;;11.32;100.00
9421;BME280;4749;51.398;5.466;2022-12-29T13:36:29;100309.56;;;11.20;100.00
9421;BME280;4749;51.398;5.466;2022-12-29T13:41:55;100298.16;;;11.16;100.00
9421;BME280;4749;51.398;5.466;2022-12-29T13:44:36;100309.75;;;10.95;100.00
9421;BME280;4749;51.398;5.466;2022-12-29T13:47:46;100314.25;;;10.77;100.00
9421;BME280;4749;51.398;5.466;2022-12-29T13:50:20;100316.06;;;10.67;100.00
9421;BME280;4749;51.398;5.466;2022-12-29T13:55:44;100311.72;;;10.58;100.00
9421;BME280;4749;51.398;5.466;2022-12-29T14:03:58;100329.16;;;10.73;100.00
9421;BME280;4749;51.398;5.466;2022-12-29T14:06:28;100335.09;;;11.01;100.00
9421;BME280;4749;51.398;5.466;2022-12-29T14:08:59;100331.47;;;11.20;100.00
9421;BME280;4749;51.398;5.466;2022-12-29T14:11:39;100336.75;;;11.20;100.00
9421;BME280;4749;51.398;5.466;2022-12-29T14:14:29;100339.38;;;11.16;100.00
9421;BME280;4749;51.398;5.466;2022-12-29T14:17:20;100340.34;;;11.10;100.00
9421;BME280;4749;51.398;5.466;2022-12-29T14:19:52;100333.31;;;11.08;100.00
9421;BME280;4749;51.398;5.466;2022-12-29T14:22:27;100335.94;;;11.11;100.00
9421;BME280;4749;51.398;5.466;2022-12-29T14:24:59;100336.88;;;11.04;100.00
9421;BME280;4749;51.398;5.466;2022-12-29T14:29:56;100334.28;;;10.93;100.00
9421;BME280;4749;51.398;5.466;2022-12-29T14:34:59;100342.19;;;10.91;100.00
9421;BME280;4749;51.398;5.466;2022-12-29T14:37:36;100339.56;;;10.90;100.00
9421;BME280;4749;51.398;5.466;2022-12-29T14:40:27;100348.41;;;10.81;100.00
9421;BME280;4749;51.398;5.466;2022-12-29T14:42:55;100351.06;;;10.77;100.00
9421;BME280;4749;51.398;5.466;2022-12-29T14:45:30;100351.09;;;10.70;100.00
9421;BME280;4749;51.398;5.466;2022-12-29T14:47:59;100353.78;;;10.63;100.00
9421;BME280;4749;51.398;5.466;2022-12-29T14:50:42;100359.06;;;10.57;100.00
9421;BME280;4749;51.398;5.466;2022-12-29T14:53:48;100366.94;;;10.57;100.00
9421;BME280;4749;51.398;5.466;2022-12-29T14:56:28;100363.44;;;10.50;100.00
9421;BME280;4749;51.398;5.466;2022-12-29T14:59:02;100375.75;;;10.47;100.00
9421;BME280;4749;51.398;5.466;2022-12-29T15:01:48;100369.66;;;10.43;100.00
9421;BME280;4749;51.398;5.466;2022-12-29T15:04:25;100364.38;;;10.40;100.00
9421;BME280;4749;51.398;5.466;2022-12-29T15:06:54;100374.06;;;10.35;100.00
9421;BME280;4749;51.398;5.466;2022-12-29T15:09:31;100372.31;;;10.31;100.00
9421;BME280;4749;51.398;5.466;2022-12-29T15:14:56;100381.09;;;10.22;100.00
9421;BME280;4749;51.398;5.466;2022-12-29T15:17:27;100381.97;;;10.18;100.00
9421;BME280;4749;51.398;5.466;2022-12-29T15:19:57;100386.34;;;10.14;100.00
9421;BME280;4749;51.398;5.466;2022-12-29T15:22:25;100391.59;;;10.11;100.00
9421;BME280;4749;51.398;5.466;2022-12-29T15:24:54;100397.75;;;10.09;100.00
9421;BME280;4749;51.398;5.466;2022-12-29T15:27:25;100395.97;;;10.06;100.00
9421;BME280;4749;51.398;5.466;2022-12-29T15:30:03;100404.78;;;10.01;100.00
9421;BME280;4749;51.398;5.466;2022-12-29T15:32:44;100408.28;;;9.95;100.00
9421;BME280;4749;51.398;5.466;2022-12-29T15:35:34;100412.63;;;9.92;100.00
9421;BME280;4749;51.398;5.466;2022-12-29T15:38:36;100410.03;;;9.87;100.00
9421;BME280;4749;51.398;5.466;2022-12-29T15:41:35;100405.66;;;9.83;100.00
9421;BME280;4749;51.398;5.466;2022-12-29T15:44:29;100412.69;;;9.76;100.00
9421;BME280;4749;51.398;5.466;2022-12-29T15:47:12;100414.41;;;9.73;100.00
9421;BME280;4749;51.398;5.466;2022-12-29T15:49:43;100404.81;;;9.70;100.00
9421;BME280;4749;51.398;5.466;2022-12-29T15:52:15;100412.69;;;9.67;100.00
9421;BME280;4749;51.398;5.466;2022-12-29T15:54:44;100419.69;;;9.61;100.00
9421;BME280;4749;51.398;5.466;2022-12-29T15:57:29;100417.06;;;9.53;100.00
9421;BME280;4749;51.398;5.466;2022-12-29T15:59:58;100419.69;;;9.45;100.00
9421;BME280;4749;51.398;5.466;2022-12-29T16:02:27;100428.41;;;9.40;100.00
9421;BME280;4749;51.398;5.466;2022-12-29T16:04:55;100425.81;;;9.34;100.00
9421;BME280;4749;51.398;5.466;2022-12-29T16:07:54;100440.66;;;9.30;100.00
9421;BME280;4749;51.398;5.466;2022-12-29T16:10:31;100438.03;;;9.30;100.00